Time;durP1;ratioP1;P1;durP2;ratioP2;P2;SDS_P1;SDS_P2;PMS_P1;PMS_P2;Temp;Humidity;BMP_temperature;BMP_pressure;BME280_temperature;BME280_humidity;BME280_pressure;Samples;Min_cycle;Max_cycle;Signal;HPM_P1;HPM_P2
2020/12/07 05:31:16;;;;;;;1999.90;999.90;;;11.40;99.90;;;;;;5609442;23;20254;-80
2020/12/07 05:33:43;;;;;;;1999.90;999.90;;;11.30;99.90;;;;;;4994406;28;20204;-76
2020/12/07 05:36:11;;;;;;;1999.90;999.90;;;11.30;99.90;;;;;;4994535;28;20204;-77
2020/12/07 05:38:38;;;;;;;1999.90;999.90;;;11.30;99.90;;;;;;4994425;28;20247;-78
2020/12/07 05:41:05;;;;;;;1999.90;999.90;;;11.30;99.90;;;;;;4994381;28;20224;-77
2020/12/07 05:43:33;;;;;;;1999.90;999.90;;;11.30;99.90;;;;;;4994358;28;20637;-77
2020/12/07 05:46:00;;;;;;;1999.90;999.90;;;11.40;99.90;;;;;;4996482;28;20212;-79
2020/12/07 05:48:31;;;;;;;1999.90;999.90;;;11.40;99.90;;;;;;4994857;28;20211;-78
2020/12/07 05:51:03;;;;;;;1999.90;999.90;;;11.40;99.90;;;;;;4994701;28;20228;-78
2020/12/07 05:53:34;;;;;;;1999.90;999.90;;;11.30;99.90;;;;;;4994743;28;20235;-78
2020/12/07 05:56:02;;;;;;;1999.90;999.90;;;11.30;99.90;;;;;;4994120;28;20661;-77
2020/12/07 05:58:30;;;;;;;1999.90;999.90;;;11.30;99.90;;;;;;4993726;28;20635;-78
2020/12/07 06:01:02;;;;;;;1999.90;999.90;;;11.30;99.90;;;;;;4993541;28;20315;-75
2020/12/07 06:03:34;;;;;;;1999.90;999.90;;;11.30;99.90;;;;;;4993434;28;20204;-77
2020/12/07 06:06:01;;;;;;;1999.90;999.90;;;11.30;99.90;;;;;;4980518;28;20252;-77
2020/12/07 06:08:31;;;;;;;1999.90;999.90;;;11.30;99.90;;;;;;4973787;28;20267;-77
2020/12/07 06:11:00;;;;;;;1999.90;999.90;;;11.30;99.90;;;;;;4974531;28;20224;-77
2020/12/07 06:13:30;;;;;;;1999.90;999.90;;;11.20;99.90;;;;;;4974796;28;20208;-77
2020/12/07 06:15:59;;;;;;;1999.90;999.90;;;11.20;99.90;;;;;;4975347;28;20209;-77
2020/12/07 06:18:27;;;;;;;1999.90;999.90;;;11.20;99.90;;;;;;4974620;28;20216;-78
2020/12/07 06:21:03;;;;;;;1999.90;999.90;;;11.30;99.90;;;;;;4974637;28;20291;-82
2020/12/07 06:23:32;;;;;;;1999.90;999.90;;;11.30;99.90;;;;;;4975333;28;20204;-76
2020/12/07 06:26:00;;;;;;;1999.90;999.90;;;11.30;99.90;;;;;;4974183;28;20240;-76
2020/12/07 06:28:31;;;;;;;1999.90;999.90;;;11.30;99.90;;;;;;4973564;28;20205;-76
2020/12/07 06:31:03;;;;;;;1999.90;999.90;;;11.30;99.90;;;;;;4973484;28;20280;-76
2020/12/07 06:33:30;;;;;;;1999.90;999.90;;;11.30;99.90;;;;;;4973623;28;20279;-76
2020/12/07 06:35:58;;;;;;;1999.90;999.90;;;11.30;99.90;;;;;;4973676;28;20213;-76
2020/12/07 06:38:38;;;;;;;1999.90;999.90;;;11.30;99.90;;;;;;4973300;28;20238;-75
2020/12/07 06:41:05;;;;;;;1999.90;999.90;;;11.30;99.90;;;;;;4973589;28;20637;-75
2020/12/07 06:43:33;;;;;;;1999.90;999.90;;;11.30;99.90;;;;;;4973318;28;20204;-76
2020/12/07 13:01:10;;;;;;;1999.90;999.90;;;11.70;96.10;;;;;;5603390;23;20255;-76
2020/12/07 13:03:37;;;;;;;1999.90;999.90;;;11.70;96.10;;;;;;4994681;28;20203;-75
2020/12/07 13:06:03;;;;;;;1999.90;999.90;;;11.70;95.90;;;;;;4994623;28;20211;-75
2020/12/07 13:08:31;;;;;;;1999.90;999.90;;;11.60;96.10;;;;;;4994406;28;20247;-75
2020/12/07 13:10:57;;;;;;;1999.90;999.90;;;11.60;96.30;;;;;;4994352;28;20220;-75
2020/12/07 13:13:25;;;;;;;1999.90;999.90;;;11.70;96.70;;;;;;4994789;28;20274;-75
2020/12/07 13:15:57;;;;;;;1999.90;999.90;;;11.70;96.00;;;;;;4994988;28;20208;-73
2020/12/07 13:18:27;;;;;;;1999.90;999.90;;;11.70;96.00;;;;;;4994021;28;20230;-73
2020/12/07 13:21:01;;;;;;;1999.90;999.90;;;11.70;96.60;;;;;;4994189;28;20228;-73
2020/12/07 13:23:33;;;;;;;1999.90;999.90;;;11.80;96.80;;;;;;4994211;28;20286;-74
2020/12/07 13:26:02;;;;;;;1999.90;999.90;;;11.80;97.50;;;;;;4994418;28;20211;-74
2020/12/07 13:28:29;;;;;;;1999.90;999.90;;;11.90;97.90;;;;;;4994119;28;20347;-74
2020/12/07 13:30:55;;;;;;;1999.90;999.90;;;11.90;97.80;;;;;;4994083;28;20228;-73
2020/12/07 13:33:22;;;;;;;1999.90;999.90;;;11.90;97.60;;;;;;4994187;28;20212;-74
2020/12/07 13:35:51;;;;;;;1999.90;999.90;;;11.80;96.60;;;;;;4993930;28;20204;-74
2020/12/07 13:38:18;;;;;;;1999.90;999.90;;;11.80;96.70;;;;;;4993642;28;20224;-74
2020/12/07 13:40:44;;;;;;;1999.90;999.90;;;11.80;96.60;;;;;;4994136;28;20278;-74
2020/12/07 13:43:11;;;;;;;1999.90;999.90;;;11.80;96.40;;;;;;4993969;28;20414;-74
2020/12/07 13:45:38;;;;;;;1999.90;999.90;;;11.80;96.30;;;;;;4993848;28;20661;-74
2020/12/07 13:48:05;;;;;;;1999.90;999.90;;;11.70;95.20;;;;;;4993687;28;20692;-74
2020/12/07 13:50:32;;;;;;;1999.90;999.90;;;11.40;94.60;;;;;;4993598;28;20227;-74
2020/12/07 13:53:00;;;;;;;1999.90;999.90;;;11.30;94.90;;;;;;4994113;28;20255;-75
2020/12/07 13:55:28;;;;;;;1999.90;999.90;;;11.40;94.70;;;;;;4993944;28;20630;-75
2020/12/07 13:57:55;;;;;;;1999.90;999.90;;;11.30;95.20;;;;;;4993435;28;20224;-74
2020/12/07 14:00:22;;;;;;;1999.90;999.90;;;11.10;94.10;;;;;;4993348;28;20270;-74
2020/12/07 14:02:49;;;;;;;1999.90;999.90;;;11.00;94.30;;;;;;4993756;28;20204;-75
2020/12/07 14:05:15;;;;;;;1999.90;999.90;;;10.90;94.60;;;;;;4985559;28;20266;-75
2020/12/07 14:07:42;;;;;;;1999.90;999.90;;;11.00;94.80;;;;;;4984030;28;20208;-75
2020/12/07 14:10:11;;;;;;;1999.90;999.90;;;10.70;94.60;;;;;;4984524;28;20208;-75
2020/12/07 14:12:38;;;;;;;1999.90;999.90;;;10.60;94.70;;;;;;4986465;28;20657;-75
2020/12/07 14:15:05;;;;;;;1999.90;999.90;;;10.50;95.10;;;;;;4994081;28;20542;-75
2020/12/07 14:17:36;;;;;;;1999.90;999.90;;;10.50;95.30;;;;;;4993150;28;20902;-75
2020/12/07 14:20:13;;;;;;;1999.90;999.90;;;10.40;95.10;;;;;;4992988;28;20661;-74
2020/12/07 14:22:48;;;;;;;1999.90;999.90;;;10.20;95.40;;;;;;4993614;28;20192;-74
2020/12/07 14:25:45;;;;;;;1999.90;999.90;;;10.10;95.60;;;;;;4993390;28;20207;-75
2020/12/07 14:31:29;;;;;;;1999.90;999.90;;;10.10;95.90;;;;;;4993152;28;20291;-75
2020/12/07 14:39:43;;;;;;;1999.90;999.90;;;9.90;96.60;;;;;;4979148;28;20216;-76
2020/12/07 14:42:11;;;;;;;1999.90;999.90;;;9.80;96.80;;;;;;4984904;28;20223;-75
2020/12/07 14:44:45;;;;;;;1999.90;999.90;;;9.70;97.40;;;;;;4991127;28;20203;-75
2020/12/07 14:47:13;;;;;;;1999.90;999.90;;;9.70;97.30;;;;;;4992065;28;20213;-75
2020/12/07 14:49:40;;;;;;;1999.90;999.90;;;9.50;97.70;;;;;;4992562;28;20196;-76
2020/12/07 14:52:09;;;;;;;1999.90;999.90;;;9.30;98.00;;;;;;4992338;28;20544;-75
2020/12/07 14:54:40;;;;;;;1999.90;999.90;;;9.20;98.40;;;;;;4991926;28;20260;-75
2020/12/07 15:05:26;;;;;;;1999.90;999.90;;;9.00;99.50;;;;;;4992274;28;20203;-76
2020/12/07 15:08:17;;;;;;;1999.90;999.90;;;9.10;99.50;;;;;;4993225;28;20212;-77
2020/12/07 15:13:58;;;;;;;1999.90;999.90;;;9.30;99.60;;;;;;4988822;28;20198;-80
2020/12/07 15:16:41;;;;;;;1999.90;999.90;;;9.30;99.50;;;;;;4998817;28;20206;-80
2020/12/07 15:19:08;;;;;;;1999.90;999.90;;;9.30;99.80;;;;;;4992498;28;20262;-76
2020/12/07 15:21:35;;;;;;;1999.90;999.90;;;9.20;99.90;;;;;;4993035;28;20219;-78
2020/12/07 15:24:02;;;;;;;1999.90;999.90;;;9.20;99.90;;;;;;5000788;28;20211;-80
2020/12/07 15:26:29;;;;;;;1999.90;999.90;;;9.20;99.90;;;;;;4999373;28;20208;-82
2020/12/07 15:28:58;;;;;;;1999.90;999.90;;;9.10;99.90;;;;;;4996633;28;20235;-82
2020/12/07 15:31:26;;;;;;;1999.90;999.90;;;9.10;99.90;;;;;;4996284;28;20260;-77
2020/12/07 15:33:53;;;;;;;1999.90;999.90;;;9.00;99.90;;;;;;4982660;28;20657;-77
2020/12/07 15:36:23;;;;;;;1999.90;999.90;;;9.00;99.90;;;;;;4989922;28;20219;-77
2020/12/07 15:38:50;;;;;;;1999.90;999.90;;;8.90;99.90;;;;;;4993452;28;20247;-82
2020/12/07 15:41:17;;;;;;;1999.90;999.90;;;8.90;99.90;;;;;;4994906;28;20274;-80
2020/12/07 15:43:47;;;;;;;1999.90;999.90;;;8.80;99.90;;;;;;4997847;28;20204;-80
2020/12/07 15:46:18;;;;;;;1999.90;999.90;;;8.80;99.90;;;;;;4997298;28;20262;-80
2020/12/07 15:48:46;;;;;;;1999.90;999.90;;;8.70;99.90;;;;;;4998534;28;20665;-80
2020/12/07 15:51:15;;;;;;;1999.90;999.90;;;8.60;99.90;;;;;;4992494;28;20274;-78
2020/12/07 15:53:42;;;;;;;1999.90;999.90;;;8.60;99.90;;;;;;4992990;28;20235;-76
2020/12/07 15:56:09;;;;;;;1999.90;999.90;;;8.60;99.90;;;;;;4991833;28;20259;-77
2020/12/07 15:58:36;;;;;;;1999.90;999.90;;;8.50;99.90;;;;;;4991145;28;20763;-77
2020/12/07 16:01:04;;;;;;;1999.90;999.90;;;8.40;99.90;;;;;;4991713;28;20235;-77
2020/12/07 16:03:31;;;;;;;1999.90;999.90;;;8.30;99.90;;;;;;4992023;28;20291;-76
2020/12/07 16:05:59;;;;;;;1999.90;999.90;;;8.40;99.90;;;;;;4992521;28;20211;-77
2020/12/07 16:08:26;;;;;;;1999.90;999.90;;;8.30;99.90;;;;;;4995150;28;20293;-77
2020/12/07 16:10:54;;;;;;;1999.90;999.90;;;8.30;99.90;;;;;;4995721;28;20302;-77
2020/12/07 16:13:21;;;;;;;1999.90;999.90;;;8.30;99.90;;;;;;4995261;28;20255;-78
2020/12/07 16:15:47;;;;;;;1999.90;999.90;;;8.20;99.90;;;;;;4995463;28;20255;-77
2020/12/07 16:18:14;;;;;;;1999.90;999.90;;;8.00;99.90;;;;;;4995275;28;20223;-77
2020/12/07 16:20:41;;;;;;;1999.90;999.90;;;7.80;99.90;;;;;;4995075;28;20227;-77
2020/12/07 16:23:09;;;;;;;1999.90;999.90;;;7.90;99.90;;;;;;4995203;28;20242;-78
2020/12/07 16:25:36;;;;;;;1999.90;999.90;;;7.70;99.90;;;;;;4995479;28;20207;-77
2020/12/07 16:28:03;;;;;;;1999.90;999.90;;;7.60;99.90;;;;;;4995704;28;20204;-77
2020/12/07 16:30:30;;;;;;;1999.90;999.90;;;7.60;99.90;;;;;;4994850;28;20595;-77
2020/12/07 16:33:01;;;;;;;1999.90;999.90;;;7.50;99.90;;;;;;4994902;28;20204;-77
2020/12/07 16:35:28;;;;;;;1999.90;999.90;;;7.40;99.90;;;;;;4996072;28;20207;-78
2020/12/07 16:37:56;;;;;;;1999.90;999.90;;;7.50;99.90;;;;;;4996961;28;20258;-77
2020/12/07 16:40:24;;;;;;;1999.90;999.90;;;7.30;99.90;;;;;;4994759;28;20198;-77
2020/12/07 16:42:51;;;;;;;1999.90;999.90;;;7.40;99.90;;;;;;4997971;28;20204;-79
2020/12/07 16:45:18;;;;;;;1999.90;999.90;;;7.30;99.90;;;;;;4997797;28;20417;-77
2020/12/07 16:47:44;;;;;;;1999.90;999.90;;;7.40;99.90;;;;;;4994482;28;20200;-77
2020/12/07 16:50:12;;;;;;;1999.90;999.90;;;7.40;99.90;;;;;;4995174;28;20551;-77
2020/12/07 16:52:39;;;;;;;1999.90;999.90;;;7.40;99.90;;;;;;4995519;28;20200;-77
2020/12/07 16:55:06;;;;;;;1999.90;999.90;;;7.40;99.90;;;;;;4997412;28;20255;-77
2020/12/07 16:57:34;;;;;;;1999.90;999.90;;;7.40;99.90;;;;;;4995976;28;20227;-78
2020/12/07 17:00:01;;;;;;;1999.90;999.90;;;7.30;99.90;;;;;;4996564;28;20279;-77
2020/12/07 17:02:27;;;;;;;1999.90;999.90;;;7.20;99.90;;;;;;4995927;28;20236;-77
2020/12/07 17:04:54;;;;;;;1999.90;999.90;;;7.10;99.90;;;;;;4996536;28;20263;-75
2020/12/07 17:07:21;;;;;;;1999.90;999.90;;;6.80;99.90;;;;;;4995634;28;20200;-75
2020/12/07 17:09:48;;;;;;;1999.90;999.90;;;6.80;99.90;;;;;;4994751;28;20234;-75
2020/12/07 17:12:25;;;;;;;1999.90;999.90;;;6.80;99.90;;;;;;4994636;28;20311;-77
2020/12/07 17:14:54;;;;;;;1999.90;999.90;;;6.90;99.90;;;;;;4994965;28;20267;-77
2020/12/07 17:17:20;;;;;;;1999.90;999.90;;;6.90;99.90;;;;;;4994443;28;20711;-75
2020/12/07 17:19:48;;;;;;;1999.90;999.90;;;6.80;99.90;;;;;;4993867;28;20234;-74
2020/12/07 17:22:14;;;;;;;1999.90;999.90;;;6.70;99.90;;;;;;4997977;28;20631;-77
2020/12/07 17:24:41;;;;;;;1999.90;999.90;;;6.90;99.90;;;;;;5000373;28;20223;-80
2020/12/07 17:27:08;;;;;;;1999.90;999.90;;;6.90;99.90;;;;;;5008212;28;20208;-77
2020/12/07 17:29:36;;;;;;;1999.90;999.90;;;7.00;99.90;;;;;;4997333;28;20261;-77
2020/12/07 17:32:04;;;;;;;1999.90;999.90;;;6.90;99.90;;;;;;4997652;28;20224;-76
2020/12/07 17:34:31;;;;;;;1999.90;999.90;;;7.00;99.90;;;;;;4998505;28;20601;-76
2020/12/07 17:36:58;;;;;;;1999.90;999.90;;;7.20;99.90;;;;;;4994910;28;20200;-78
2020/12/07 17:39:25;;;;;;;1999.90;999.90;;;7.00;99.90;;;;;;4994212;28;20266;-75
2020/12/07 17:41:52;;;;;;;1999.90;999.90;;;7.10;99.90;;;;;;4991949;28;20227;-73
2020/12/07 17:44:19;;;;;;;1999.90;999.90;;;7.30;99.90;;;;;;4993574;28;20211;-74
2020/12/07 17:46:46;;;;;;;1999.90;999.90;;;7.50;99.90;;;;;;4993565;28;20204;-75
2020/12/07 17:49:14;;;;;;;1999.90;999.90;;;7.50;99.90;;;;;;4993380;28;20627;-75
2020/12/07 17:51:41;;;;;;;1999.90;999.90;;;7.70;99.90;;;;;;4993788;28;20658;-77
2020/12/07 17:54:08;;;;;;;1999.90;999.90;;;7.80;99.90;;;;;;4995427;28;20661;-77
2020/12/07 17:56:38;;;;;;;1999.90;999.90;;;7.70;99.90;;;;;;4999593;28;20212;-80
2020/12/07 17:59:05;;;;;;;1999.90;999.90;;;7.90;99.90;;;;;;5000743;28;20248;-77
2020/12/07 18:01:33;;;;;;;1999.90;999.90;;;8.00;99.90;;;;;;5002924;28;20240;-77
2020/12/07 18:03:59;;;;;;;1999.90;999.90;;;7.90;99.90;;;;;;5002886;28;20200;-78
2020/12/07 18:06:27;;;;;;;1999.90;999.90;;;7.60;99.90;;;;;;5000884;28;20272;-78
2020/12/07 18:08:54;;;;;;;1999.90;999.90;;;7.60;99.90;;;;;;4999223;28;20601;-78
2020/12/07 18:11:21;;;;;;;1999.90;999.90;;;7.60;99.90;;;;;;5002067;28;20220;-78
2020/12/07 18:13:48;;;;;;;1999.90;999.90;;;7.60;99.90;;;;;;4995606;28;20204;-78
2020/12/07 18:16:15;;;;;;;1999.90;999.90;;;7.80;99.90;;;;;;4992323;28;20200;-76
2020/12/07 18:18:42;;;;;;;1999.90;999.90;;;8.00;99.90;;;;;;4991780;28;20223;-77
2020/12/07 18:21:11;;;;;;;1999.90;999.90;;;8.10;99.90;;;;;;4986884;28;20643;-77
2020/12/07 18:23:39;;;;;;;1999.90;999.90;;;8.20;99.90;;;;;;4988150;28;20913;-76
2020/12/07 18:26:06;;;;;;;1999.90;999.90;;;8.00;99.90;;;;;;4989778;28;20247;-76
2020/12/07 18:28:34;;;;;;;1999.90;999.90;;;8.00;99.90;;;;;;4992447;28;20215;-76
2020/12/07 18:31:03;;;;;;;1999.90;999.90;;;8.20;99.90;;;;;;4991695;28;20228;-76
2020/12/07 18:33:30;;;;;;;1999.90;999.90;;;8.30;99.90;;;;;;4992762;28;20247;-77
2020/12/07 18:35:57;;;;;;;1999.90;999.90;;;8.10;99.90;;;;;;4992515;28;20204;-77
2020/12/07 18:38:24;;;;;;;1999.90;999.90;;;7.90;99.90;;;;;;4975205;28;20263;-77
2020/12/07 18:40:52;;;;;;;1999.90;999.90;;;8.00;99.90;;;;;;4976650;28;20295;-77
2020/12/07 18:43:19;;;;;;;1999.90;999.90;;;8.20;99.90;;;;;;4974853;28;20737;-77
2020/12/07 18:45:46;;;;;;;1999.90;999.90;;;8.00;99.90;;;;;;4974520;28;20208;-77
2020/12/07 18:48:13;;;;;;;1999.90;999.90;;;7.80;99.90;;;;;;4974660;28;20252;-77
2020/12/07 18:50:40;;;;;;;1999.90;999.90;;;7.80;99.90;;;;;;4974927;28;20249;-77
2020/12/07 18:53:06;;;;;;;1999.90;999.90;;;7.80;99.90;;;;;;4974277;28;20661;-77
2020/12/07 18:55:33;;;;;;;1999.90;999.90;;;7.80;99.90;;;;;;4974685;28;20267;-77
2020/12/07 18:58:01;;;;;;;1999.90;999.90;;;7.80;99.90;;;;;;4976161;28;20259;-78
2020/12/07 19:00:28;;;;;;;1999.90;999.90;;;7.70;99.90;;;;;;4974943;28;20260;-76
2020/12/07 19:02:55;;;;;;;1999.90;999.90;;;7.90;99.90;;;;;;4977752;28;20262;-77
2020/12/07 19:05:22;;;;;;;1999.90;999.90;;;8.00;99.90;;;;;;4980309;28;20677;-76
2020/12/07 19:07:49;;;;;;;1999.90;999.90;;;8.10;99.90;;;;;;4993071;28;20321;-81
2020/12/07 19:10:17;;;;;;;1999.90;999.90;;;8.20;99.90;;;;;;4982924;28;20196;-77
2020/12/07 19:12:44;;;;;;;1999.90;999.90;;;8.20;99.90;;;;;;4991934;28;20221;-80
2020/12/07 19:15:12;;;;;;;1999.90;999.90;;;8.10;99.90;;;;;;5002076;23;20262;-76
2020/12/07 19:17:39;;;;;;;1999.90;999.90;;;8.10;99.90;;;;;;4966027;28;20205;-72
2020/12/07 19:20:08;;;;;;;1999.90;999.90;;;8.00;99.90;;;;;;4962254;28;20275;-72
2020/12/07 19:22:35;;;;;;;1999.90;999.90;;;8.00;99.90;;;;;;4963762;28;20196;-72
2020/12/07 19:25:17;;;;;;;1999.90;999.90;;;8.00;99.90;;;;;;4969305;28;20259;-74
2020/12/07 19:27:44;;;;;;;1999.90;999.90;;;8.00;99.90;;;;;;4959220;28;20201;-76
2020/12/07 19:30:11;;;;;;;1999.90;999.90;;;8.20;99.90;;;;;;4958284;28;20197;-74
2020/12/07 19:32:39;;;;;;;1999.90;999.90;;;8.20;99.90;;;;;;4962583;28;20685;-75
2020/12/07 19:35:07;;;;;;;1999.90;999.90;;;8.20;99.90;;;;;;4969543;28;20213;-73
2020/12/07 19:37:34;;;;;;;1999.90;999.90;;;8.10;99.90;;;;;;4972263;28;20200;-74
2020/12/07 19:40:00;;;;;;;1999.90;999.90;;;8.00;99.90;;;;;;4972586;28;20586;-75
2020/12/07 19:42:28;;;;;;;1999.90;999.90;;;8.00;99.90;;;;;;4968143;28;20633;-75
2020/12/07 19:44:55;;;;;;;1999.90;999.90;;;8.30;99.90;;;;;;4965480;28;20624;-75
2020/12/07 19:47:23;;;;;;;1999.90;999.90;;;8.30;99.90;;;;;;4965814;28;20205;-74
2020/12/07 19:49:51;;;;;;;1999.90;999.90;;;8.20;99.90;;;;;;4967306;28;20196;-76
2020/12/07 19:52:18;;;;;;;1999.90;999.90;;;8.10;99.90;;;;;;4968352;28;20276;-77
2020/12/07 19:54:47;;;;;;;1999.90;999.90;;;8.20;99.90;;;;;;4966037;28;20216;-76
2020/12/07 19:57:14;;;;;;;1999.90;999.90;;;8.20;99.90;;;;;;4969002;28;20204;-76
2020/12/07 19:59:41;;;;;;;1999.90;999.90;;;8.10;99.90;;;;;;4975707;28;20224;-75
2020/12/07 20:02:08;;;;;;;1999.90;999.90;;;8.10;99.90;;;;;;4976024;28;20216;-75
2020/12/07 20:04:36;;;;;;;1999.90;999.90;;;7.90;99.90;;;;;;4975756;28;20259;-75
2020/12/07 20:07:03;;;;;;;1999.90;999.90;;;7.80;99.90;;;;;;4975796;28;20208;-74
2020/12/07 20:09:30;;;;;;;1999.90;999.90;;;8.00;99.90;;;;;;4963529;28;20197;-74
2020/12/07 20:11:58;;;;;;;1999.90;999.90;;;8.30;99.90;;;;;;4957300;28;20666;-76
2020/12/07 20:14:25;;;;;;;1999.90;999.90;;;8.30;99.90;;;;;;4958526;28;20197;-76
2020/12/07 20:16:53;;;;;;;1999.90;999.90;;;8.30;99.90;;;;;;4962390;28;20671;-76
2020/12/07 20:19:21;;;;;;;1999.90;999.90;;;8.00;99.90;;;;;;4965487;28;20585;-76
2020/12/07 20:21:48;;;;;;;1999.90;999.90;;;7.80;99.90;;;;;;4961166;28;20272;-75
2020/12/07 20:24:16;;;;;;;1999.90;999.90;;;7.80;99.90;;;;;;4955999;29;20216;-76
2020/12/07 20:26:42;;;;;;;1999.90;999.90;;;7.90;99.90;;;;;;4956206;29;20288;-74
2020/12/07 20:29:09;;;;;;;1999.90;999.90;;;8.00;99.90;;;;;;4955925;29;20264;-75
2020/12/07 20:31:36;;;;;;;1999.90;999.90;;;8.20;99.90;;;;;;4956012;29;20209;-76
2020/12/07 20:34:04;;;;;;;1999.90;999.90;;;8.40;99.90;;;;;;4956649;29;20225;-75
2020/12/07 20:36:33;;;;;;;1999.90;999.90;;;8.50;99.90;;;;;;4953779;29;20247;-74
2020/12/07 20:39:01;;;;;;;1999.90;999.90;;;8.50;99.90;;;;;;4955440;29;20298;-76
2020/12/07 20:41:30;;;;;;;1999.90;999.90;;;8.60;99.90;;;;;;4956459;29;20261;-75
2020/12/07 20:43:58;;;;;;;1999.90;999.90;;;8.50;99.90;;;;;;4956788;29;20795;-77
2020/12/07 20:46:25;;;;;;;1999.90;999.90;;;8.40;99.90;;;;;;4957437;29;20260;-77
2020/12/07 20:48:53;;;;;;;1999.90;999.90;;;8.20;99.90;;;;;;4956509;29;20232;-75
2020/12/07 20:51:20;;;;;;;1999.90;999.90;;;8.30;99.90;;;;;;4955815;29;20697;-75
2020/12/07 20:53:49;;;;;;;1999.90;999.90;;;8.30;99.90;;;;;;4955648;28;20591;-75
2020/12/07 20:56:17;;;;;;;1999.90;999.90;;;8.30;99.90;;;;;;4957895;28;20232;-75
2020/12/07 20:58:44;;;;;;;1999.90;999.90;;;8.40;99.90;;;;;;4959070;28;20193;-75
2020/12/07 21:01:12;;;;;;;1999.90;999.90;;;8.60;99.90;;;;;;4964366;28;20684;-75
2020/12/07 21:03:39;;;;;;;1999.90;999.90;;;8.60;99.90;;;;;;4964501;28;20206;-75
2020/12/07 21:06:06;;;;;;;1999.90;999.90;;;8.50;99.90;;;;;;4965518;28;20632;-74
2020/12/07 21:08:33;;;;;;;1999.90;999.90;;;8.60;99.90;;;;;;4964439;28;20212;-74
2020/12/07 21:11:00;;;;;;;1999.90;999.90;;;8.60;99.90;;;;;;4964062;28;20196;-74
2020/12/07 21:13:28;;;;;;;1999.90;999.90;;;8.50;99.90;;;;;;4965702;28;20292;-75
2020/12/07 21:15:54;;;;;;;1999.90;999.90;;;8.60;99.90;;;;;;4964433;28;20247;-75
2020/12/07 21:18:21;;;;;;;1999.90;999.90;;;8.50;99.90;;;;;;4963649;28;20665;-75
2020/12/07 21:20:48;;;;;;;1999.90;999.90;;;8.50;99.90;;;;;;4966284;28;20213;-75
2020/12/07 21:23:15;;;;;;;1999.90;999.90;;;8.40;99.90;;;;;;4964660;28;20201;-75
2020/12/07 21:25:42;;;;;;;1999.90;999.90;;;8.40;99.90;;;;;;4968123;28;20277;-75
2020/12/07 21:28:09;;;;;;;1999.90;999.90;;;8.40;99.90;;;;;;4974447;28;20259;-76
2020/12/07 21:30:37;;;;;;;1999.90;999.90;;;8.30;99.90;;;;;;4974215;28;20200;-74
2020/12/07 21:33:03;;;;;;;1999.90;999.90;;;8.30;99.90;;;;;;4973446;28;20251;-75
2020/12/07 21:35:32;;;;;;;1999.90;999.90;;;8.40;99.90;;;;;;4974751;28;20225;-75
2020/12/07 21:37:59;;;;;;;1999.90;999.90;;;8.40;99.90;;;;;;4974388;28;20264;-75
2020/12/07 21:40:27;;;;;;;1999.90;999.90;;;8.40;99.90;;;;;;4974743;28;20233;-75
2020/12/07 21:42:55;;;;;;;1999.90;999.90;;;8.30;99.90;;;;;;4974553;28;20205;-75
2020/12/07 21:45:22;;;;;;;1999.90;999.90;;;8.10;99.90;;;;;;4974483;28;20447;-75
2020/12/07 21:47:50;;;;;;;1999.90;999.90;;;8.00;99.90;;;;;;4974328;28;20720;-75
2020/12/07 21:50:17;;;;;;;1999.90;999.90;;;8.00;99.90;;;;;;4974535;28;20260;-75
2020/12/07 21:52:44;;;;;;;1999.90;999.90;;;8.10;99.90;;;;;;4974215;28;20205;-75
2020/12/07 21:55:11;;;;;;;1999.90;999.90;;;9.80;99.90;;;;;;4974500;28;20224;-75
2020/12/07 21:57:39;;;;;;;1999.90;999.90;;;8.20;99.90;;;;;;4973975;28;20263;-74
